Flight Track Log - Related Links

Times and Time Zones

All times are in EDT time to prevent confusion due to time zone crossing. See the SKW6345 flight status page for this flight to view local times or setup timezone preferences in your user account.

Time Position Orientation Groundspeed Altitude Reporting Facility
EDT Latitude Longitude Course Direction KTS MPH feet Rate Location/Type
Sat 11:13:31 AM 37.6667 -122.3167 38° Northeast 187 215 2,000  Level Northern Cal TRACON
Sat 11:14:19 AM 37.7000 -122.2833 38° Northeast 223 257 3,700 2,056 Climbing Northern Cal TRACON
Sat 11:15:00 AM 37.6259 -122.4036 120° Southeast  Level FlightAware Approximate
Sat 11:15:19 AM 37.7500 -122.2167 47° Northeast 262 302 5,700  Level Northern Cal TRACON
Sat 11:16:00 AM 37.6981 -122.2853 38° Northeast  Level FlightAware Approximate
Sat 11:16:19 AM 37.8167 -122.1500 38° Northeast 284 327 7,900  Level Northern Cal TRACON
Sat 11:17:00 AM 37.8043 -122.1790 38° Northeast  Level FlightAware Approximate
Sat 11:17:33 AM 37.8858 -122.0856 36° Northeast 292 336 10,600  Level Oakland Center
Sat 11:18:00 AM 37.8964 -122.0870 38° Northeast  Level FlightAware Approximate
Sat 11:18:34 AM 37.9550 -122.0203 37° Northeast 311 358 12,200  Level Oakland Center
Sat 11:19:35 AM 38.0311 -121.9469 37° Northeast 343 395 13,500 1,328 Climbing Oakland Center
Sat 11:20:36 AM 38.1097 -121.8725 37° Northeast 353 406 14,900 1,463 Climbing Oakland Center
Sat 11:21:38 AM 38.1906 -121.7950 37° Northeast 363 418 16,500 1,463 Climbing Oakland Center
Sat 11:22:39 AM 38.2725 -121.7167 37° Northeast 370 426 17,900 1,525 Climbing Oakland Center
Sat 11:23:40 AM 38.3728 -121.6203 37° Northeast 378 435 19,600 1,377 Climbing Oakland Center
Sat 11:24:41 AM 38.4514 -121.5389 39° Northeast 382 440 20,700 1,033 Climbing Oakland Center
Sat 11:25:42 AM 38.5200 -121.4217 53° Northeast 393 452 21,700 984 Climbing Oakland Center
Sat 11:26:43 AM 38.5856 -121.3064 54° Northeast 401 461 22,700 1,024 Climbing Oakland Center
Sat 11:27:45 AM 38.6533 -121.1911 53° Northeast 406 467 23,800 1,024 Climbing Oakland Center
Sat 11:28:46 AM 38.7247 -121.0686 53° Northeast 410 472 24,800 885 Climbing Oakland Center
Sat 11:29:47 AM 38.7931 -120.9494 54° Northeast 413 475 25,600 689 Climbing Oakland Center
Sat 11:30:48 AM 38.8617 -120.8283 54° Northeast 417 480 26,200 585 Climbing Oakland Center
Sat 11:31:50 AM 38.9336 -120.7061 53° Northeast 427 491 26,800 683 Climbing Oakland Center
Sat 11:32:51 AM 39.0047 -120.5817 54° Northeast 432 497 27,600 689 Climbing Oakland Center
Sat 11:33:52 AM 39.0767 -120.4569 53° Northeast 434 499 28,200 590 Climbing Oakland Center
Sat 11:34:53 AM 39.1492 -120.3303 54° Northeast 438 504 28,800 488 Climbing Oakland Center
Sat 11:35:55 AM 39.2211 -120.2011 54° Northeast 443 510 29,200 488 Climbing Oakland Center
Sat 11:36:56 AM 39.3056 -120.0561 53° Northeast 444 511 29,800 639 Climbing Oakland Center
Sat 11:37:57 AM 39.3789 -119.9269 54° Northeast 445 512 30,500 585 Climbing Oakland Center
Sat 11:38:59 AM 39.4508 -119.8000 54° Northeast 441 507 31,000 244 Climbing Oakland Center
Sat 11:40:00 AM 39.5444 -119.6917 42° Northeast 447 514 31,000  Level Oakland Center
Sat 11:41:01 AM 39.6364 -119.5822 42° Northeast 447 514 31,000  Level Oakland Center
Sat 11:42:03 AM 39.7275 -119.4742 42° Northeast 443 510 31,000  Level Oakland Center
Sat 11:43:04 AM 39.8189 -119.3656 42° Northeast 442 509 31,000  Level Oakland Center
Sat 11:44:05 AM 39.9108 -119.2547 43° Northeast 446 513 31,000  Level Oakland Center
Sat 11:45:07 AM 40.0219 -119.1217 43° Northeast 448 516 31,000  Level Oakland Center
Sat 11:46:08 AM 40.1142 -119.0119 42° Northeast 448 516 31,000  Level Oakland Center
Sat 11:47:09 AM 40.2053 -118.9000 43° Northeast 447 514 31,000  Level Oakland Center
Sat 11:48:11 AM 40.2972 -118.7900 42° Northeast 447 514 31,000  Level Oakland Center
Sat 11:49:12 AM 40.3894 -118.6767 43° Northeast 449 517 31,000  Level Oakland Center
Sat 11:50:14 AM 40.4800 -118.5658 43° Northeast 447 514 31,000  Level Oakland Center
Sat 11:51:15 AM 40.5700 -118.4539 43° Northeast 445 512 31,000  Level Oakland Center
Sat 11:52:16 AM 40.6608 -118.3403 43° Northeast 447 514 31,000  Level Oakland Center
Sat 11:53:18 AM 40.7517 -118.2286 43° Northeast 447 514 31,000  Level Oakland Center
Sat 11:54:19 AM 40.8419 -118.1158 43° Northeast 446 513 31,000  Level Oakland Center
Sat 11:55:21 AM 40.9336 -118.0011 43° Northeast 451 519 31,000  Level Oakland Center
Sat 11:56:22 AM 41.0414 -117.8650 44° Northeast 448 516 31,000  Level Oakland Center
Sat 11:56:52 AM 41.0794 -117.8178 43° Northeast 446 513 31,000  Level Salt Lake Center
Sat 11:57:54 AM 41.1675 -117.7078 43° Northeast 449 517 31,000  Level Salt Lake Center
Sat 11:58:56 AM 41.2678 -117.5781 44° Northeast 450 518 31,000  Level Salt Lake Center
Sat 11:59:58 AM 41.3550 -117.4661 44° Northeast 452 520 31,000  Level Salt Lake Center
Sat 12:01:00 PM 41.4561 -117.3378 44° Northeast 450 518 31,000  Level Salt Lake Center
Sat 12:02:02 PM 41.5422 -117.2258 44° Northeast 450 518 31,000  Level Salt Lake Center
Sat 12:03:04 PM 41.6433 -117.0956 44° Northeast 452 520 31,000  Level Salt Lake Center
Sat 12:04:06 PM 41.7303 -116.9839 44° Northeast 451 519 31,000  Level Salt Lake Center
Sat 12:05:08 PM 41.8306 -116.8486 45° Northeast 451 519 31,000  Level Salt Lake Center
Sat 12:06:10 PM 41.9167 -116.7369 44° Northeast 451 519 31,000  Level Salt Lake Center
Sat 12:07:12 PM 42.0019 -116.6242 44° Northeast 449 517 31,000  Level Salt Lake Center
Sat 12:08:15 PM 42.1008 -116.4925 45° Northeast 449 517 31,000  Level Salt Lake Center
Sat 12:09:17 PM 42.1864 -116.3800 44° Northeast 448 516 31,000  Level Salt Lake Center
Sat 12:10:19 PM 42.2850 -116.2469 45° Northeast 448 516 31,000  Level Salt Lake Center
Sat 12:11:21 PM 42.3703 -116.1342 44° Northeast 449 517 31,000  Level Salt Lake Center
Sat 12:12:23 PM 42.4692 -116.0019 45° Northeast 448 516 31,000  Level Salt Lake Center
Sat 12:13:25 PM 42.5536 -115.8883 45° Northeast 448 516 31,000  Level Salt Lake Center
Sat 12:14:27 PM 42.6519 -115.7544 45° Northeast 449 517 31,000  Level Salt Lake Center
Sat 12:15:29 PM 42.7364 -115.6394 45° Northeast 450 518 31,000  Level Salt Lake Center
Sat 12:16:31 PM 42.8350 -115.5044 45° Northeast 450 518 31,000  Level Salt Lake Center
Sat 12:17:33 PM 42.9197 -115.3906 45° Northeast 448 516 31,000  Level Salt Lake Center
Sat 12:18:35 PM 43.0183 -115.2544 45° Northeast 451 519 31,000  Level Salt Lake Center
Sat 12:19:37 PM 43.1019 -115.1383 45° Northeast 449 517 31,000  Level Salt Lake Center
Sat 12:20:39 PM 43.2006 -115.0028 45° Northeast 451 519 31,000  Level Salt Lake Center
Sat 12:21:41 PM 43.2850 -114.8844 46° Northeast 454 522 31,000  Level Salt Lake Center
Sat 12:22:43 PM 43.3822 -114.7458 46° Northeast 452 520 31,000  Level Salt Lake Center
Sat 12:23:45 PM 43.4667 -114.6272 46° Northeast 453 521 31,000  Level Salt Lake Center
Sat 12:24:47 PM 43.5656 -114.4881 46° Northeast 454 522 31,000  Level Salt Lake Center
Sat 12:25:49 PM 43.6506 -114.3678 46° Northeast 458 527 31,000  Level Salt Lake Center
Sat 12:26:51 PM 43.7489 -114.2278 46° Northeast 458 527 31,000  Level Salt Lake Center
Sat 12:27:53 PM 43.8333 -114.1061 46° Northeast 458 527 31,000  Level Salt Lake Center
Sat 12:28:55 PM 43.9322 -113.9644 46° Northeast 460 529 31,000  Level Salt Lake Center
Sat 12:29:57 PM 44.0164 -113.8439 46° Northeast 458 527 31,000  Level Salt Lake Center
Sat 12:30:59 PM 44.1003 -113.7203 47° Northeast 458 527 31,000  Level Salt Lake Center
Sat 12:32:02 PM 44.1983 -113.5753 47° Northeast 459 528 31,000  Level Salt Lake Center
Sat 12:33:04 PM 44.2778 -113.4506 48° Northeast 454 522 31,000  Level Salt Lake Center
Sat 12:34:06 PM 44.3783 -113.3058 46° Northeast 460 529 31,000  Level Salt Lake Center
Sat 12:35:08 PM 44.4617 -113.1808 47° Northeast 461 531 31,000  Level Salt Lake Center
Sat 12:36:10 PM 44.5603 -113.0353 46° Northeast 459 528 31,000 -339 Level Salt Lake Center
Sat 12:37:12 PM 44.6453 -112.9069 47° Northeast 465 535 30,300 -871 Descending Salt Lake Center
Sat 12:38:14 PM 44.7489 -112.7508 47° Northeast 485 558 29,200 -1,016 Descending Salt Lake Center
Sat 12:39:16 PM 44.8381 -112.6153 47° Northeast 491 565 28,200 -1,016 Descending Salt Lake Center
Sat 12:40:18 PM 44.9419 -112.4567 47° Northeast 491 565 27,100 -581 Descending Salt Lake Center
Sat 12:41:20 PM 45.0306 -112.3228 47° Northeast 486 559 27,000 -48 Descending Salt Lake Center
Sat 12:42:22 PM 45.1161 -112.1906 47° Northeast 478 550 27,000 -581 Level Salt Lake Center
Sat 12:43:24 PM 45.2119 -112.0411 48° Northeast 476 548 25,800 -2,323 Descending Salt Lake Center
Sat 12:44:26 PM 45.3000 -111.9089 47° Northeast 464 534 22,200 -3,435 Descending Salt Lake Center
Sat 12:45:28 PM 45.3936 -111.7906 42° Northeast 454 522 18,700 -3,339 Descending Salt Lake Center
Sat 12:46:30 PM 45.4853 -111.6792 40° Northeast 440 506 15,300 -3,242 Descending Salt Lake Center
Sat 12:47:32 PM 45.5922 -111.5567 39° Northeast 417 480 12,000 -2,177 Descending Salt Lake Center
Sat 12:48:34 PM 45.6653 -111.4719 39° Northeast 366 421 10,800 -1,488 Descending Salt Lake Center
Sat 12:49:37 PM 45.7444 -111.4289 21° North 324 373 8,900 -1,694 Descending Salt Lake Center
Sat 12:50:38 PM 45.8183 -111.3811 24° Northeast 301 346 7,300 -976 Descending Salt Lake Center
Sat 12:51:40 PM 45.8514 -111.3053 58° Northeast 257 296 6,900 -823 Descending Salt Lake Center
Sat 12:52:42 PM 45.8356 -111.2336 108° East 213 245 5,600 -968 Descending Salt Lake Center
Sat 12:53:44 PM 45.8058 -111.1917 135° Southeast 172 198 4,900 -532 Descending Salt Lake Center
Sat 12:54:46 PM 45.7719 -111.1453 136° Southeast 162 186 4,500 -387 Descending Salt Lake Center

Login

Don't have an account? Register now (free) for customized features, flight alerts, and more!